sensor_id;sensor_type;location;lat;lon;timestamp;pressure;altitude;pressure_sealevel;temperature;humidity
64388;BME280;50709;52.648;4.764;2023-03-01T00:01:03;103370.94;;;7.56;70.28
64388;BME280;50709;52.648;4.764;2023-03-01T00:03:29;103368.94;;;7.67;69.83
64388;BME280;50709;52.648;4.764;2023-03-01T00:05:55;103379.09;;;7.79;69.24
64388;BME280;50709;52.648;4.764;2023-03-01T00:08:20;103367.56;;;7.90;70.05
64388;BME280;50709;52.648;4.764;2023-03-01T00:10:45;103371.72;;;7.86;69.44
64388;BME280;50709;52.648;4.764;2023-03-01T00:13:11;103365.41;;;7.66;69.26
64388;BME280;50709;52.648;4.764;2023-03-01T00:15:40;103349.78;;;7.50;69.68
64388;BME280;50709;52.648;4.764;2023-03-01T00:18:07;103340.28;;;7.50;69.73
64388;BME280;50709;52.648;4.764;2023-03-01T00:20:33;103359.56;;;7.70;69.74
64388;BME280;50709;52.648;4.764;2023-03-01T00:22:59;103366.50;;;7.70;69.49
64388;BME280;50709;52.648;4.764;2023-03-01T00:25:24;103354.44;;;7.55;69.98
64388;BME280;50709;52.648;4.764;2023-03-01T00:27:50;103360.63;;;7.57;69.70
64388;BME280;50709;52.648;4.764;2023-03-01T00:30:15;103368.09;;;7.68;70.34
64388;BME280;50709;52.648;4.764;2023-03-01T00:32:41;103353.97;;;7.63;70.31
64388;BME280;50709;52.648;4.764;2023-03-01T00:35:07;103352.22;;;7.47;70.02
64388;BME280;50709;52.648;4.764;2023-03-01T00:37:32;103350.72;;;7.67;70.40
64388;BME280;50709;52.648;4.764;2023-03-01T00:39:57;103363.59;;;7.80;69.64
64388;BME280;50709;52.648;4.764;2023-03-01T00:42:23;103359.41;;;7.51;69.69
64388;BME280;50709;52.648;4.764;2023-03-01T00:44:48;103362.22;;;7.55;70.09
64388;BME280;50709;52.648;4.764;2023-03-01T00:47:14;103369.06;;;7.53;70.00
64388;BME280;50709;52.648;4.764;2023-03-01T00:49:39;103333.28;;;7.18;69.78
64388;BME280;50709;52.648;4.764;2023-03-01T00:52:04;103358.47;;;7.65;70.57
64388;BME280;50709;52.648;4.764;2023-03-01T00:54:30;103358.47;;;7.65;70.04
64388;BME280;50709;52.648;4.764;2023-03-01T00:56:55;103369.47;;;7.61;70.72
64388;BME280;50709;52.648;4.764;2023-03-01T00:59:21;103335.81;;;7.16;70.59
64388;BME280;50709;52.648;4.764;2023-03-01T01:01:46;103347.91;;;7.47;70.65
64388;BME280;50709;52.648;4.764;2023-03-01T01:04:13;103338.03;;;7.25;70.74
64388;BME280;50709;52.648;4.764;2023-03-01T01:06:44;103315.84;;;7.00;70.07
64388;BME280;50709;52.648;4.764;2023-03-01T01:09:12;103332.13;;;7.28;70.56
64388;BME280;50709;52.648;4.764;2023-03-01T01:11:47;103347.25;;;7.35;70.62
64388;BME280;50709;52.648;4.764;2023-03-01T01:14:14;103338.09;;;7.41;70.70
64388;BME280;50709;52.648;4.764;2023-03-01T01:16:39;103339.91;;;7.28;70.53
64388;BME280;50709;52.648;4.764;2023-03-01T01:19:05;103316.28;;;7.39;70.64
64388;BME280;50709;52.648;4.764;2023-03-01T01:21:31;103338.81;;;7.55;69.94
64388;BME280;50709;52.648;4.764;2023-03-01T01:23:56;103321.19;;;7.50;70.28
64388;BME280;50709;52.648;4.764;2023-03-01T01:26:33;103311.13;;;7.56;70.22
64388;BME280;50709;52.648;4.764;2023-03-01T01:29:00;103298.91;;;7.38;70.60
64388;BME280;50709;52.648;4.764;2023-03-01T01:31:26;103307.88;;;7.60;70.91
64388;BME280;50709;52.648;4.764;2023-03-01T01:33:53;103297.06;;;7.52;70.46
64388;BME280;50709;52.648;4.764;2023-03-01T01:36:19;103245.91;;;7.20;70.23
64388;BME280;50709;52.648;4.764;2023-03-01T01:38:46;103313.81;;;7.57;70.73
64388;BME280;50709;52.648;4.764;2023-03-01T01:41:12;103312.44;;;7.48;70.12
64388;BME280;50709;52.648;4.764;2023-03-01T01:43:41;103285.34;;;7.28;70.41
64388;BME280;50709;52.648;4.764;2023-03-01T01:46:28;103321.47;;;7.39;70.33
64388;BME280;50709;52.648;4.764;2023-03-01T01:49:02;103252.25;;;6.94;70.57
64388;BME280;50709;52.648;4.764;2023-03-01T01:51:33;103297.97;;;7.21;70.52
64388;BME280;50709;52.648;4.764;2023-03-01T01:54:07;103301.13;;;7.47;70.67
64388;BME280;50709;52.648;4.764;2023-03-01T01:56:33;103297.47;;;7.60;70.39
64388;BME280;50709;52.648;4.764;2023-03-01T01:59:00;103296.63;;;7.45;71.17
64388;BME280;50709;52.648;4.764;2023-03-01T02:01:26;103285.50;;;7.47;70.65
64388;BME280;50709;52.648;4.764;2023-03-01T02:03:52;103249.97;;;7.15;70.48
64388;BME280;50709;52.648;4.764;2023-03-01T02:06:34;103295.03;;;7.47;71.08
64388;BME280;50709;52.648;4.764;2023-03-01T02:09:02;103304.56;;;7.31;70.90
64388;BME280;50709;52.648;4.764;2023-03-01T02:11:31;103257.50;;;6.79;70.92
64388;BME280;50709;52.648;4.764;2023-03-01T02:13:56;103276.91;;;6.85;70.65
64388;BME280;50709;52.648;4.764;2023-03-01T02:16:22;103261.31;;;6.85;70.90
64388;BME280;50709;52.648;4.764;2023-03-01T02:18:50;103292.69;;;7.20;71.35
64388;BME280;50709;52.648;4.764;2023-03-01T02:21:38;103294.31;;;7.18;70.93
64388;BME280;50709;52.648;4.764;2023-03-01T02:24:35;103288.00;;;7.13;71.00
64388;BME280;50709;52.648;4.764;2023-03-01T02:27:03;103272.56;;;7.16;71.21
64388;BME280;50709;52.648;4.764;2023-03-01T02:29:28;103287.28;;;7.00;71.42
64388;BME280;50709;52.648;4.764;2023-03-01T02:31:56;103278.22;;;6.62;70.83
64388;BME280;50709;52.648;4.764;2023-03-01T02:34:24;103274.78;;;6.78;71.09
64388;BME280;50709;52.648;4.764;2023-03-01T02:37:05;103233.59;;;6.84;71.35
64388;BME280;50709;52.648;4.764;2023-03-01T02:39:41;103250.19;;;7.03;71.22
64388;BME280;50709;52.648;4.764;2023-03-01T02:42:11;103213.44;;;6.80;70.80
64388;BME280;50709;52.648;4.764;2023-03-01T02:44:37;103261.53;;;6.88;70.67
64388;BME280;50709;52.648;4.764;2023-03-01T02:47:04;103250.81;;;6.99;71.56
64388;BME280;50709;52.648;4.764;2023-03-01T02:49:34;103194.47;;;6.66;70.90
64388;BME280;50709;52.648;4.764;2023-03-01T02:55:07;103257.16;;;7.04;71.13
64388;BME280;50709;52.648;4.764;2023-03-01T02:57:35;103228.91;;;6.79;70.92
64388;BME280;50709;52.648;4.764;2023-03-01T03:00:05;103240.75;;;6.88;70.90
64388;BME280;50709;52.648;4.764;2023-03-01T03:02:35;103240.34;;;6.66;70.54
64388;BME280;50709;52.648;4.764;2023-03-01T03:05:06;103177.63;;;6.13;70.54
64388;BME280;50709;52.648;4.764;2023-03-01T03:07:35;103254.38;;;6.54;71.24
64388;BME280;50709;52.648;4.764;2023-03-01T03:10:01;103236.66;;;6.62;71.54
64388;BME280;50709;52.648;4.764;2023-03-01T03:12:27;103254.03;;;6.63;70.81
64388;BME280;50709;52.648;4.764;2023-03-01T03:14:52;103248.22;;;6.52;71.27
64388;BME280;50709;52.648;4.764;2023-03-01T03:17:18;103235.59;;;6.29;70.87
64388;BME280;50709;52.648;4.764;2023-03-01T03:19:43;103246.69;;;6.11;71.34
64388;BME280;50709;52.648;4.764;2023-03-01T03:22:11;103213.09;;;6.13;72.02
64388;BME280;50709;52.648;4.764;2023-03-01T03:24:37;103219.78;;;6.24;71.70
64388;BME280;50709;52.648;4.764;2023-03-01T03:27:04;103204.84;;;6.20;71.46
64388;BME280;50709;52.648;4.764;2023-03-01T03:29:30;103205.63;;;6.34;72.06
64388;BME280;50709;52.648;4.764;2023-03-01T03:31:55;103222.72;;;6.30;71.97
64388;BME280;50709;52.648;4.764;2023-03-01T03:34:21;103208.78;;;6.28;71.74
64388;BME280;50709;52.648;4.764;2023-03-01T03:36:46;103212.88;;;6.39;71.63
64388;BME280;50709;52.648;4.764;2023-03-01T03:39:11;103175.72;;;6.40;71.95
64388;BME280;50709;52.648;4.764;2023-03-01T03:41:37;103217.00;;;6.51;71.51
64388;BME280;50709;52.648;4.764;2023-03-01T03:44:02;103208.91;;;6.46;71.50
64388;BME280;50709;52.648;4.764;2023-03-01T03:46:28;103213.38;;;6.64;71.42
64388;BME280;50709;52.648;4.764;2023-03-01T03:48:53;103215.25;;;6.66;71.07
64388;BME280;50709;52.648;4.764;2023-03-01T03:51:18;103178.25;;;6.24;70.70
64388;BME280;50709;52.648;4.764;2023-03-01T03:53:44;103211.09;;;6.38;70.77
64388;BME280;50709;52.648;4.764;2023-03-01T03:56:10;103216.78;;;6.48;71.47
64388;BME280;50709;52.648;4.764;2023-03-01T03:58:36;103212.22;;;6.44;71.60
64388;BME280;50709;52.648;4.764;2023-03-01T04:01:02;103184.34;;;6.10;71.04
64388;BME280;50709;52.648;4.764;2023-03-01T04:03:29;103166.38;;;6.13;71.47
64388;BME280;50709;52.648;4.764;2023-03-01T04:06:00;103211.91;;;6.37;70.95
64388;BME280;50709;52.648;4.764;2023-03-01T04:08:26;103162.16;;;6.15;70.94
64388;BME280;50709;52.648;4.764;2023-03-01T04:10:57;103204.91;;;6.36;71.45
64388;BME280;50709;52.648;4.764;2023-03-01T04:13:24;103176.22;;;6.18;71.14
64388;BME280;50709;52.648;4.764;2023-03-01T04:15:53;103187.38;;;6.32;71.01
64388;BME280;50709;52.648;4.764;2023-03-01T04:18:23;103168.25;;;6.00;70.93
64388;BME280;50709;52.648;4.764;2023-03-01T04:20:50;103188.88;;;6.44;71.16
64388;BME280;50709;52.648;4.764;2023-03-01T04:23:19;103169.66;;;6.40;71.48
64388;BME280;50709;52.648;4.764;2023-03-01T04:26:00;103182.44;;;6.37;71.51
64388;BME280;50709;52.648;4.764;2023-03-01T04:28:37;103186.56;;;6.33;71.29
64388;BME280;50709;52.648;4.764;2023-03-01T04:31:05;103127.47;;;5.39;71.31
64388;BME280;50709;52.648;4.764;2023-03-01T04:33:51;103142.72;;;4.92;72.71
64388;BME280;50709;52.648;4.764;2023-03-01T04:36:18;103170.56;;;5.09;73.93
64388;BME280;50709;52.648;4.764;2023-03-01T04:38:44;103167.53;;;5.16;74.30
64388;BME280;50709;52.648;4.764;2023-03-01T04:41:13;103162.56;;;5.34;73.63
64388;BME280;50709;52.648;4.764;2023-03-01T04:43:39;103157.41;;;5.78;73.76
64388;BME280;50709;52.648;4.764;2023-03-01T04:46:07;103158.88;;;6.02;72.45
64388;BME280;50709;52.648;4.764;2023-03-01T04:48:35;103158.91;;;5.89;72.08
64388;BME280;50709;52.648;4.764;2023-03-01T04:51:01;103163.06;;;6.00;72.01
64388;BME280;50709;52.648;4.764;2023-03-01T04:53:27;103161.34;;;5.71;71.93
64388;BME280;50709;52.648;4.764;2023-03-01T04:55:56;103178.75;;;5.73;72.41
64388;BME280;50709;52.648;4.764;2023-03-01T04:58:23;103157.56;;;5.66;72.49
64388;BME280;50709;52.648;4.764;2023-03-01T05:00:49;103183.44;;;5.94;72.91
64388;BME280;50709;52.648;4.764;2023-03-01T05:03:14;103168.56;;;5.92;72.60
64388;BME280;50709;52.648;4.764;2023-03-01T05:05:45;103112.56;;;5.65;72.13
64388;BME280;50709;52.648;4.764;2023-03-01T05:08:10;103115.91;;;5.93;71.53
64388;BME280;50709;52.648;4.764;2023-03-01T05:10:48;103165.66;;;6.00;71.75
64388;BME280;50709;52.648;4.764;2023-03-01T05:13:14;103178.81;;;6.03;71.81
64388;BME280;50709;52.648;4.764;2023-03-01T05:15:57;103162.31;;;6.18;71.88
64388;BME280;50709;52.648;4.764;2023-03-01T05:18:24;103132.09;;;5.88;71.27
64388;BME280;50709;52.648;4.764;2023-03-01T05:21:01;103160.72;;;6.35;71.92
64388;BME280;50709;52.648;4.764;2023-03-01T05:23:29;103164.13;;;6.04;71.06
64388;BME280;50709;52.648;4.764;2023-03-01T05:25:58;103165.28;;;6.24;72.24
64388;BME280;50709;52.648;4.764;2023-03-01T05:28:25;103169.38;;;6.35;71.14
64388;BME280;50709;52.648;4.764;2023-03-01T05:30:51;103105.88;;;6.14;70.78
64388;BME280;50709;52.648;4.764;2023-03-01T05:33:17;103123.94;;;5.97;71.02
64388;BME280;50709;52.648;4.764;2023-03-01T05:35:44;103155.81;;;6.10;71.25
64388;BME280;50709;52.648;4.764;2023-03-01T05:38:11;103162.00;;;6.12;71.52
64388;BME280;50709;52.648;4.764;2023-03-01T05:40:39;103150.38;;;6.05;71.31
64388;BME280;50709;52.648;4.764;2023-03-01T05:43:05;103141.22;;;5.82;71.36
64388;BME280;50709;52.648;4.764;2023-03-01T05:45:31;103143.03;;;6.13;70.67
64388;BME280;50709;52.648;4.764;2023-03-01T05:47:58;103111.59;;;5.93;69.93
64388;BME280;50709;52.648;4.764;2023-03-01T05:50:29;103129.97;;;6.74;66.84
64388;BME280;50709;52.648;4.764;2023-03-01T05:55:24;103140.53;;;7.60;65.32
64388;BME280;50709;52.648;4.764;2023-03-01T05:57:49;103120.94;;;7.66;65.79
64388;BME280;50709;52.648;4.764;2023-03-01T06:00:17;103120.25;;;7.70;65.16
64388;BME280;50709;52.648;4.764;2023-03-01T06:02:43;103133.31;;;7.88;64.58
64388;BME280;50709;52.648;4.764;2023-03-01T06:05:13;103124.84;;;8.11;64.37
64388;BME280;50709;52.648;4.764;2023-03-01T06:07:39;103118.84;;;8.12;63.91
64388;BME280;50709;52.648;4.764;2023-03-01T06:10:06;103079.72;;;8.10;62.63
64388;BME280;50709;52.648;4.764;2023-03-01T06:12:32;103108.13;;;8.41;62.16
64388;BME280;50709;52.648;4.764;2023-03-01T06:14:58;103122.25;;;8.29;63.18
64388;BME280;50709;52.648;4.764;2023-03-01T06:17:24;103131.84;;;8.66;62.03
64388;BME280;50709;52.648;4.764;2023-03-01T06:19:49;103117.41;;;8.72;61.10
64388;BME280;50709;52.648;4.764;2023-03-01T06:22:15;103113.94;;;9.11;59.18
64388;BME280;50709;52.648;4.764;2023-03-01T06:24:40;103115.56;;;9.09;59.27
64388;BME280;50709;52.648;4.764;2023-03-01T06:27:06;103090.84;;;9.20;58.11
64388;BME280;50709;52.648;4.764;2023-03-01T06:29:31;103115.72;;;9.32;59.35
64388;BME280;50709;52.648;4.764;2023-03-01T06:31:56;103109.03;;;9.38;59.51
64388;BME280;50709;52.648;4.764;2023-03-01T06:34:22;103112.13;;;9.30;58.85
64388;BME280;50709;52.648;4.764;2023-03-01T06:36:47;103103.88;;;9.40;58.96
64388;BME280;50709;52.648;4.764;2023-03-01T06:39:13;103101.97;;;9.36;57.68
64388;BME280;50709;52.648;4.764;2023-03-01T06:41:38;103093.31;;;8.58;61.10
64388;BME280;50709;52.648;4.764;2023-03-01T06:44:04;103121.59;;;8.88;61.52
64388;BME280;50709;52.648;4.764;2023-03-01T06:46:29;103121.53;;;8.87;61.38
64388;BME280;50709;52.648;4.764;2023-03-01T06:48:54;103082.59;;;9.50;58.52
64388;BME280;50709;52.648;4.764;2023-03-01T06:51:20;103115.72;;;9.32;58.36
64388;BME280;50709;52.648;4.764;2023-03-01T06:53:46;103122.28;;;9.43;59.63
64388;BME280;50709;52.648;4.764;2023-03-01T06:56:11;103122.00;;;9.17;59.86
64388;BME280;50709;52.648;4.764;2023-03-01T06:58:37;103122.50;;;9.69;58.40
64388;BME280;50709;52.648;4.764;2023-03-01T07:01:06;103115.50;;;9.68;59.04
64388;BME280;50709;52.648;4.764;2023-03-01T07:03:32;103129.22;;;9.23;59.47
64388;BME280;50709;52.648;4.764;2023-03-01T07:05:57;103125.88;;;9.06;59.69
64388;BME280;50709;52.648;4.764;2023-03-01T07:08:23;103124.84;;;9.22;60.22
64388;BME280;50709;52.648;4.764;2023-03-01T07:10:54;103126.66;;;9.44;60.34
64388;BME280;50709;52.648;4.764;2023-03-01T07:13:20;103121.25;;;9.39;60.16
64388;BME280;50709;52.648;4.764;2023-03-01T07:15:45;103130.31;;;9.69;59.63
64388;BME280;50709;52.648;4.764;2023-03-01T07:18:11;103134.81;;;9.92;58.34
64388;BME280;50709;52.648;4.764;2023-03-01T07:20:36;103120.72;;;10.10;56.60
64388;BME280;50709;52.648;4.764;2023-03-01T07:23:01;103101.75;;;10.35;56.05
64388;BME280;50709;52.648;4.764;2023-03-01T07:25:27;103142.00;;;9.98;56.89
64388;BME280;50709;52.648;4.764;2023-03-01T07:27:53;103139.22;;;8.94;61.01
64388;BME280;50709;52.648;4.764;2023-03-01T07:30:20;103102.25;;;9.22;60.54
64388;BME280;50709;52.648;4.764;2023-03-01T07:32:46;103125.56;;;9.80;59.91
64388;BME280;50709;52.648;4.764;2023-03-01T07:35:11;103146.69;;;9.86;59.25
64388;BME280;50709;52.648;4.764;2023-03-01T07:37:37;103133.97;;;10.58;56.37
64388;BME280;50709;52.648;4.764;2023-03-01T07:40:02;103131.59;;;10.00;57.30
64388;BME280;50709;52.648;4.764;2023-03-01T07:42:28;103142.88;;;10.20;59.04
64388;BME280;50709;52.648;4.764;2023-03-01T07:44:53;103126.97;;;10.14;58.99
64388;BME280;50709;52.648;4.764;2023-03-01T07:47:18;103097.16;;;9.66;58.85
64388;BME280;50709;52.648;4.764;2023-03-01T07:49:44;103134.97;;;9.55;60.28
64388;BME280;50709;52.648;4.764;2023-03-01T07:52:11;103126.75;;;10.30;59.04
64388;BME280;50709;52.648;4.764;2023-03-01T07:54:37;103113.72;;;10.09;59.75
64388;BME280;50709;52.648;4.764;2023-03-01T07:57:02;103127.56;;;10.29;59.35
64388;BME280;50709;52.648;4.764;2023-03-01T07:59:28;103109.09;;;10.68;58.07
64388;BME280;50709;52.648;4.764;2023-03-01T08:01:56;103117.19;;;10.52;58.12
64388;BME280;50709;52.648;4.764;2023-03-01T08:04:22;103122.47;;;10.53;59.22
64388;BME280;50709;52.648;4.764;2023-03-01T08:06:48;103117.28;;;10.77;58.08
64388;BME280;50709;52.648;4.764;2023-03-01T08:09:13;103139.94;;;10.54;58.08
64388;BME280;50709;52.648;4.764;2023-03-01T08:11:39;103139.00;;;10.31;59.49
64388;BME280;50709;52.648;4.764;2023-03-01T08:14:05;103125.84;;;10.73;58.61
64388;BME280;50709;52.648;4.764;2023-03-01T08:16:31;103116.69;;;10.62;58.14
64388;BME280;50709;52.648;4.764;2023-03-01T08:19:03;103100.72;;;11.01;57.71
64388;BME280;50709;52.648;4.764;2023-03-01T08:21:29;103127.28;;;11.62;55.48
64388;BME280;50709;52.648;4.764;2023-03-01T08:23:54;103119.56;;;11.41;56.77
64388;BME280;50709;52.648;4.764;2023-03-01T08:26:20;103129.09;;;11.15;57.91
64388;BME280;50709;52.648;4.764;2023-03-01T08:28:47;103088.44;;;11.49;56.44
64388;BME280;50709;52.648;4.764;2023-03-01T08:31:19;103110.72;;;11.37;55.68
64388;BME280;50709;52.648;4.764;2023-03-01T08:33:46;103136.34;;;11.22;56.98
64388;BME280;50709;52.648;4.764;2023-03-01T08:36:16;103110.22;;;11.73;56.73
64388;BME280;50709;52.648;4.764;2023-03-01T08:38:41;103104.03;;;11.45;56.90
64388;BME280;50709;52.648;4.764;2023-03-01T08:41:07;103100.22;;;11.61;57.54
64388;BME280;50709;52.648;4.764;2023-03-01T08:43:32;103114.00;;;11.32;57.42
64388;BME280;50709;52.648;4.764;2023-03-01T08:45:58;103107.78;;;11.54;57.05
64388;BME280;50709;52.648;4.764;2023-03-01T08:48:23;103099.59;;;11.94;54.72
64388;BME280;50709;52.648;4.764;2023-03-01T08:50:48;103116.44;;;11.77;56.05
64388;BME280;50709;52.648;4.764;2023-03-01T08:53:14;103121.69;;;11.77;55.11
64388;BME280;50709;52.648;4.764;2023-03-01T08:55:39;103126.75;;;11.98;54.65
64388;BME280;50709;52.648;4.764;2023-03-01T08:58:05;103106.88;;;12.32;53.88
64388;BME280;50709;52.648;4.764;2023-03-01T09:00:30;103121.16;;;12.15;55.17
64388;BME280;50709;52.648;4.764;2023-03-01T09:02:56;103119.22;;;11.82;56.25
64388;BME280;50709;52.648;4.764;2023-03-01T09:05:21;103104.16;;;12.29;55.03
64388;BME280;50709;52.648;4.764;2023-03-01T09:07:47;103100.22;;;12.72;53.49
64388;BME280;50709;52.648;4.764;2023-03-01T09:10:12;103100.69;;;12.59;54.88
64388;BME280;50709;52.648;4.764;2023-03-01T09:12:37;103095.41;;;12.57;52.64
64388;BME280;50709;52.648;4.764;2023-03-01T09:15:03;103108.50;;;12.27;54.68
64388;BME280;50709;52.648;4.764;2023-03-01T09:17:28;103114.50;;;13.12;51.79
64388;BME280;50709;52.648;4.764;2023-03-01T09:19:54;103106.22;;;13.30;51.69
64388;BME280;50709;52.648;4.764;2023-03-01T09:22:19;103064.47;;;13.73;49.98
64388;BME280;50709;52.648;4.764;2023-03-01T09:24:44;103110.97;;;14.14;49.39
64388;BME280;50709;52.648;4.764;2023-03-01T09:27:10;103089.09;;;13.77;49.80
64388;BME280;50709;52.648;4.764;2023-03-01T09:29:36;103100.06;;;13.60;50.34
64388;BME280;50709;52.648;4.764;2023-03-01T09:32:02;103091.78;;;11.70;56.42
64388;BME280;50709;52.648;4.764;2023-03-01T09:34:27;103057.25;;;11.55;59.98
64388;BME280;50709;52.648;4.764;2023-03-01T09:36:53;103095.56;;;11.78;60.36
64388;BME280;50709;52.648;4.764;2023-03-01T09:39:19;103085.91;;;12.03;58.07
64388;BME280;50709;52.648;4.764;2023-03-01T09:41:49;103110.88;;;11.93;58.17
64388;BME280;50709;52.648;4.764;2023-03-01T09:44:31;103088.81;;;12.13;56.75
64388;BME280;50709;52.648;4.764;2023-03-01T09:46:58;103078.00;;;12.31;59.44
64388;BME280;50709;52.648;4.764;2023-03-01T09:49:30;103105.81;;;12.25;59.04
64388;BME280;50709;52.648;4.764;2023-03-01T09:54:37;103093.88;;;12.64;61.13
64388;BME280;50709;52.648;4.764;2023-03-01T09:57:19;103070.94;;;12.28;60.45
64388;BME280;50709;52.648;4.764;2023-03-01T10:10:46;103068.66;;;11.57;56.76
64388;BME280;50709;52.648;4.764;2023-03-01T10:13:24;103069.69;;;12.15;58.12
64388;BME280;50709;52.648;4.764;2023-03-01T10:15:57;103035.84;;;12.82;54.59
64388;BME280;50709;52.648;4.764;2023-03-01T10:18:31;103059.00;;;12.36;52.48
64388;BME280;50709;52.648;4.764;2023-03-01T10:21:19;103064.84;;;13.20;53.32
64388;BME280;50709;52.648;4.764;2023-03-01T10:23:46;103028.69;;;12.76;57.12
64388;BME280;50709;52.648;4.764;2023-03-01T10:29:14;102995.38;;;11.84;53.96
64388;BME280;50709;52.648;4.764;2023-03-01T10:31:50;103051.53;;;12.50;55.37
64388;BME280;50709;52.648;4.764;2023-03-01T10:34:20;103053.88;;;12.12;54.44
64388;BME280;50709;52.648;4.764;2023-03-01T10:36:50;103055.91;;;12.82;52.72
64388;BME280;50709;52.648;4.764;2023-03-01T10:39:22;103036.47;;;12.73;50.83
64388;BME280;50709;52.648;4.764;2023-03-01T10:44:47;103055.38;;;12.93;50.68
64388;BME280;50709;52.648;4.764;2023-03-01T10:47:27;103040.66;;;12.09;50.05
64388;BME280;50709;52.648;4.764;2023-03-01T10:49:56;103059.94;;;12.69;52.28
64388;BME280;50709;52.648;4.764;2023-03-01T10:52:25;103027.88;;;13.43;48.85
64388;BME280;50709;52.648;4.764;2023-03-01T10:54:54;103042.28;;;12.93;51.97
64388;BME280;50709;52.648;4.764;2023-03-01T10:57:35;103001.69;;;12.49;48.87
64388;BME280;50709;52.648;4.764;2023-03-01T11:00:21;103051.56;;;11.68;47.81
64388;BME280;50709;52.648;4.764;2023-03-01T11:03:11;103033.06;;;11.62;53.58
64388;BME280;50709;52.648;4.764;2023-03-01T11:05:50;103005.63;;;10.73;49.68
64388;BME280;50709;52.648;4.764;2023-03-01T11:08:29;103037.75;;;10.95;48.94
64388;BME280;50709;52.648;4.764;2023-03-01T11:14:07;103047.84;;;10.62;47.09
64388;BME280;50709;52.648;4.764;2023-03-01T11:16:39;103035.81;;;11.14;51.44
64388;BME280;50709;52.648;4.764;2023-03-01T11:21:36;103028.75;;;11.64;50.92
64388;BME280;50709;52.648;4.764;2023-03-01T11:24:04;103032.63;;;10.74;53.48
64388;BME280;50709;52.648;4.764;2023-03-01T11:26:34;103006.88;;;10.85;50.30
64388;BME280;50709;52.648;4.764;2023-03-01T11:29:05;103018.25;;;11.63;50.82
64388;BME280;50709;52.648;4.764;2023-03-01T11:31:31;103008.25;;;11.51;48.53
64388;BME280;50709;52.648;4.764;2023-03-01T11:34:10;103005.84;;;12.40;51.47
64388;BME280;50709;52.648;4.764;2023-03-01T11:36:52;103034.59;;;11.55;49.63
64388;BME280;50709;52.648;4.764;2023-03-01T11:39:59;102996.91;;;11.50;49.96
64388;BME280;50709;52.648;4.764;2023-03-01T11:45:50;103009.41;;;11.33;52.99
64388;BME280;50709;52.648;4.764;2023-03-01T11:51:38;102995.13;;;11.76;53.18
64388;BME280;50709;52.648;4.764;2023-03-01T11:54:09;102952.91;;;11.38;48.86
64388;BME280;50709;52.648;4.764;2023-03-01T11:56:44;102997.03;;;12.38;52.85
64388;BME280;50709;52.648;4.764;2023-03-01T12:07:14;102970.59;;;11.73;51.59
64388;BME280;50709;52.648;4.764;2023-03-01T12:09:53;102978.56;;;11.77;50.41
64388;BME280;50709;52.648;4.764;2023-03-01T12:25:41;102971.88;;;11.87;50.79
64388;BME280;50709;52.648;4.764;2023-03-01T12:28:34;102971.66;;;12.37;47.65
64388;BME280;50709;52.648;4.764;2023-03-01T12:31:08;102976.41;;;12.51;51.11
64388;BME280;50709;52.648;4.764;2023-03-01T12:33:49;102951.84;;;11.88;47.73
64388;BME280;50709;52.648;4.764;2023-03-01T12:42:19;102907.59;;;12.26;50.51
64388;BME280;50709;52.648;4.764;2023-03-01T12:50:47;102939.50;;;12.75;49.96
64388;BME280;50709;52.648;4.764;2023-03-01T12:53:26;102936.13;;;12.81;48.43
64388;BME280;50709;52.648;4.764;2023-03-01T12:56:02;102924.16;;;12.25;46.54
64388;BME280;50709;52.648;4.764;2023-03-01T12:58:49;102913.50;;;11.90;47.15
64388;BME280;50709;52.648;4.764;2023-03-01T13:01:35;102926.88;;;11.43;49.15
64388;BME280;50709;52.648;4.764;2023-03-01T13:09:50;102909.53;;;11.45;44.73
64388;BME280;50709;52.648;4.764;2023-03-01T13:33:45;102879.19;;;11.52;49.35
64388;BME280;50709;52.648;4.764;2023-03-01T13:44:13;102911.06;;;10.35;44.80
64388;BME280;50709;52.648;4.764;2023-03-01T13:46:46;102884.28;;;12.35;52.72
64388;BME280;50709;52.648;4.764;2023-03-01T13:49:16;102875.22;;;12.91;47.16
64388;BME280;50709;52.648;4.764;2023-03-01T13:51:46;102882.19;;;12.23;49.44
64388;BME280;50709;52.648;4.764;2023-03-01T13:54:14;102871.63;;;11.61;49.02
64388;BME280;50709;52.648;4.764;2023-03-01T13:56:40;102878.38;;;12.77;45.88
64388;BME280;50709;52.648;4.764;2023-03-01T13:59:17;102845.19;;;11.23;45.64
64388;BME280;50709;52.648;4.764;2023-03-01T14:01:43;102847.06;;;11.27;44.14
64388;BME280;50709;52.648;4.764;2023-03-01T14:04:27;102863.47;;;10.96;44.96
64388;BME280;50709;52.648;4.764;2023-03-01T14:09:44;102836.88;;;11.95;47.50
64388;BME280;50709;52.648;4.764;2023-03-01T14:12:44;102843.13;;;14.23;42.10
64388;BME280;50709;52.648;4.764;2023-03-01T14:15:54;102817.63;;;12.60;43.65
64388;BME280;50709;52.648;4.764;2023-03-01T14:18:50;102835.28;;;12.33;45.76
64388;BME280;50709;52.648;4.764;2023-03-01T14:21:18;102843.28;;;12.72;46.08
64388;BME280;50709;52.648;4.764;2023-03-01T14:23:44;102838.28;;;11.84;48.29
64388;BME280;50709;52.648;4.764;2023-03-01T14:26:11;102838.53;;;11.34;45.97
64388;BME280;50709;52.648;4.764;2023-03-01T14:28:37;102827.84;;;11.55;50.93
64388;BME280;50709;52.648;4.764;2023-03-01T14:31:37;102834.63;;;12.08;50.40
64388;BME280;50709;52.648;4.764;2023-03-01T14:34:03;102817.72;;;12.28;47.76
64388;BME280;50709;52.648;4.764;2023-03-01T14:36:31;102815.19;;;13.03;45.24
64388;BME280;50709;52.648;4.764;2023-03-01T14:38:57;102839.66;;;12.00;47.90
64388;BME280;50709;52.648;4.764;2023-03-01T14:41:33;102810.22;;;12.77;43.53
64388;BME280;50709;52.648;4.764;2023-03-01T14:44:06;102821.97;;;12.93;46.39
64388;BME280;50709;52.648;4.764;2023-03-01T14:46:35;102814.44;;;12.72;47.03
64388;BME280;50709;52.648;4.764;2023-03-01T14:49:04;102757.25;;;12.56;43.52
64388;BME280;50709;52.648;4.764;2023-03-01T14:51:30;102816.16;;;12.35;46.43
64388;BME280;50709;52.648;4.764;2023-03-01T14:53:56;102814.00;;;13.27;46.31